createdAt,value
2023-07-14T00:02:26.077Z,17.80
2023-07-14T00:04:54.984Z,17.80
2023-07-14T00:07:24.854Z,17.80
2023-07-14T00:09:54.878Z,17.70
2023-07-14T00:12:24.238Z,17.60
2023-07-14T00:14:52.955Z,17.60
2023-07-14T00:17:21.584Z,17.50
2023-07-14T00:19:50.604Z,17.40
2023-07-14T00:22:19.796Z,17.40
2023-07-14T00:24:48.431Z,17.40
2023-07-14T00:27:21.931Z,17.30
2023-07-14T00:29:50.984Z,17.20
2023-07-14T00:32:22.400Z,17.20
2023-07-14T00:34:51.549Z,17.10
2023-07-14T00:37:21.555Z,17.00
2023-07-14T00:39:50.663Z,16.90
2023-07-14T00:42:21.672Z,16.90
2023-07-14T00:44:53.686Z,16.90
2023-07-14T00:47:28.780Z,16.80
2023-07-14T00:49:58.870Z,16.80
2023-07-14T00:52:34.125Z,16.80
2023-07-14T00:55:28.155Z,16.70
2023-07-14T00:58:00.209Z,16.60
2023-07-14T01:00:32.343Z,16.60
2023-07-14T01:03:05.990Z,16.50
2023-07-14T01:05:35.610Z,16.50
2023-07-14T01:08:04.806Z,16.50
2023-07-14T01:10:33.469Z,16.40
2023-07-14T01:13:09.886Z,16.40
2023-07-14T01:15:42.216Z,16.30
2023-07-14T01:18:12.847Z,16.20
2023-07-14T01:20:43.162Z,16.20
2023-07-14T01:23:40.473Z,16.10
2023-07-14T01:26:34.112Z,16.00
2023-07-14T01:29:05.485Z,16.00
2023-07-14T01:31:37.170Z,15.90
2023-07-14T01:34:06.003Z,15.90
2023-07-14T01:36:36.384Z,15.80
2023-07-14T01:39:06.529Z,15.80
2023-07-14T01:41:35.557Z,15.80
2023-07-14T01:44:08.721Z,15.80
2023-07-14T01:46:37.945Z,15.70
2023-07-14T01:49:25.567Z,15.70
2023-07-14T01:52:01.082Z,15.60
2023-07-14T01:54:35.968Z,15.60
2023-07-14T01:57:12.754Z,15.50
2023-07-14T01:59:50.168Z,15.50
2023-07-14T02:02:26.862Z,15.50
2023-07-14T02:04:56.152Z,15.40
2023-07-14T02:07:25.249Z,15.40
2023-07-14T02:09:54.530Z,15.30
2023-07-14T02:12:30.568Z,15.30
2023-07-14T02:15:14.202Z,15.20
2023-07-14T02:17:42.703Z,15.10
2023-07-14T02:20:30.424Z,15.10
2023-07-14T02:23:00.825Z,15.10
2023-07-14T02:25:36.188Z,15.00
2023-07-14T02:28:05.782Z,15.00
2023-07-14T02:30:39.419Z,14.90
2023-07-14T02:33:14.608Z,14.90
2023-07-14T02:35:51.340Z,14.90
2023-07-14T02:38:23.316Z,14.80
2023-07-14T02:40:57.950Z,14.80
2023-07-14T02:43:27.612Z,14.70
2023-07-14T02:46:02.323Z,14.70
2023-07-14T02:48:37.050Z,14.70
2023-07-14T02:51:06.419Z,14.70
2023-07-14T02:53:36.347Z,14.60
2023-07-14T02:56:06.303Z,14.60
2023-07-14T02:58:37.642Z,14.60
2023-07-14T03:01:09.075Z,14.60
2023-07-14T03:03:40.698Z,14.50
2023-07-14T03:06:12.755Z,14.50
2023-07-14T03:08:41.888Z,14.40
2023-07-14T03:11:12.276Z,14.40
2023-07-14T03:13:47.420Z,14.40
2023-07-14T03:16:18.388Z,14.40
2023-07-14T03:18:47.102Z,14.30
2023-07-14T03:21:16.568Z,14.30
2023-07-14T03:23:46.946Z,14.30
2023-07-14T03:26:15.487Z,14.20
2023-07-14T03:28:44.300Z,14.20
2023-07-14T03:31:16.578Z,14.20
2023-07-14T03:33:47.789Z,14.10
2023-07-14T03:36:21.772Z,14.10
2023-07-14T03:39:26.219Z,14.10
2023-07-14T03:41:57.101Z,14.00
2023-07-14T03:44:27.826Z,14.00
2023-07-14T03:46:59.708Z,14.00
2023-07-14T03:49:29.500Z,14.00
2023-07-14T03:51:58.629Z,14.00
2023-07-14T03:54:28.725Z,13.90
2023-07-14T03:56:59.773Z,14.00
2023-07-14T03:59:28.843Z,13.90
2023-07-14T04:01:59.085Z,14.00
2023-07-14T04:04:28.082Z,14.00
2023-07-14T04:06:58.572Z,14.00
2023-07-14T04:09:27.884Z,14.00
2023-07-14T04:11:56.712Z,14.10
2023-07-14T04:14:25.782Z,14.20
2023-07-14T04:16:54.643Z,14.20
2023-07-14T04:19:24.862Z,14.30
2023-07-14T04:21:53.889Z,14.40
2023-07-14T04:24:23.189Z,14.50
2023-07-14T04:26:57.084Z,14.60
2023-07-14T04:29:26.637Z,14.70
2023-07-14T04:31:55.488Z,14.80
2023-07-14T04:34:25.907Z,14.90
2023-07-14T04:36:54.536Z,15.00
2023-07-14T04:39:26.840Z,15.00
2023-07-14T04:41:56.533Z,15.00
2023-07-14T04:44:26.509Z,15.10
2023-07-14T04:46:55.635Z,15.10
2023-07-14T04:49:26.406Z,15.20
2023-07-14T04:51:56.780Z,15.20
2023-07-14T04:54:25.970Z,15.30
2023-07-14T04:56:55.177Z,15.30
2023-07-14T04:59:24.040Z,15.40
2023-07-14T05:01:53.003Z,15.40
2023-07-14T05:04:26.111Z,15.50
2023-07-14T05:06:55.498Z,15.50
2023-07-14T05:09:23.975Z,15.60
2023-07-14T05:11:52.900Z,15.70
2023-07-14T05:14:21.940Z,15.90
2023-07-14T05:16:50.403Z,16.00
2023-07-14T05:19:20.617Z,16.10
2023-07-14T05:21:50.577Z,16.20
2023-07-14T05:24:19.375Z,16.30
2023-07-14T05:26:47.890Z,16.40
2023-07-14T05:29:18.858Z,16.50
2023-07-14T05:31:47.809Z,16.60
2023-07-14T05:34:18.877Z,16.80
2023-07-14T05:36:48.091Z,16.90
2023-07-14T05:39:18.481Z,17.00
2023-07-14T05:41:47.020Z,17.10
2023-07-14T05:44:17.118Z,17.30
2023-07-14T05:46:45.909Z,17.50
2023-07-14T05:49:15.047Z,17.70
2023-07-14T05:51:44.253Z,17.80
2023-07-14T05:54:12.774Z,17.90
2023-07-14T05:56:43.401Z,18.10
2023-07-14T05:59:12.380Z,18.20
2023-07-14T06:01:41.323Z,18.40
2023-07-14T06:04:11.167Z,18.60
2023-07-14T06:06:39.530Z,18.80
2023-07-14T06:09:08.739Z,19.10
2023-07-14T06:11:37.517Z,19.30
2023-07-14T06:14:09.264Z,19.40
2023-07-14T06:16:38.345Z,19.60
2023-07-14T06:19:09.173Z,19.80
2023-07-14T06:21:38.409Z,19.90
2023-07-14T06:24:10.765Z,20.00
2023-07-14T06:26:41.300Z,20.10
2023-07-14T06:29:11.258Z,20.20
2023-07-14T06:31:39.821Z,20.30
2023-07-14T06:34:10.114Z,20.40
2023-07-14T06:36:39.701Z,20.50
2023-07-14T06:39:09.768Z,20.60
2023-07-14T06:41:39.840Z,20.70
2023-07-14T06:44:25.209Z,20.80
2023-07-14T06:46:55.676Z,21.00
2023-07-14T06:49:27.054Z,21.10
2023-07-14T06:51:58.891Z,21.20
2023-07-14T06:54:27.745Z,21.40
2023-07-14T06:56:59.122Z,21.50
2023-07-14T06:59:29.594Z,21.70
2023-07-14T07:01:58.499Z,21.90
2023-07-14T07:04:28.119Z,22.10
2023-07-14T07:06:58.033Z,22.30
2023-07-14T07:09:26.817Z,22.50
2023-07-14T07:11:55.548Z,22.60
2023-07-14T07:14:24.631Z,22.90
2023-07-14T07:16:54.960Z,23.30
2023-07-14T07:19:24.106Z,23.60
2023-07-14T07:21:52.685Z,24.00
2023-07-14T07:24:23.555Z,24.30
2023-07-14T07:26:52.081Z,24.50
2023-07-14T07:29:20.711Z,24.80
2023-07-14T07:31:53.065Z,25.10
2023-07-14T07:34:24.059Z,25.30
2023-07-14T07:36:53.551Z,25.20
2023-07-14T07:39:22.413Z,25.10
2023-07-14T07:41:52.020Z,25.30
2023-07-14T07:44:21.240Z,25.40
2023-07-14T07:46:50.102Z,25.50
2023-07-14T07:49:19.403Z,25.40
2023-07-14T07:51:50.145Z,25.50
2023-07-14T07:54:20.377Z,25.60
2023-07-14T07:56:48.944Z,25.70
2023-07-14T07:59:18.174Z,25.70
2023-07-14T08:01:48.011Z,25.80
2023-07-14T08:04:20.180Z,25.70
2023-07-14T08:06:50.397Z,25.70
2023-07-14T08:09:19.422Z,25.80
2023-07-14T08:11:49.351Z,26.10
2023-07-14T08:14:22.259Z,26.30
2023-07-14T08:16:51.491Z,26.30
2023-07-14T08:19:20.522Z,26.30
2023-07-14T08:21:51.367Z,26.40
2023-07-14T08:24:20.329Z,26.60
2023-07-14T08:26:50.560Z,26.70
2023-07-14T08:29:19.763Z,26.80
2023-07-14T08:31:50.803Z,27.00
2023-07-14T08:34:19.588Z,27.00
2023-07-14T08:36:50.124Z,27.20
2023-07-14T08:39:18.721Z,27.30
2023-07-14T08:41:48.470Z,27.60
2023-07-14T08:44:49.516Z,27.80
2023-07-14T08:47:24.281Z,28.00
2023-07-14T08:49:59.342Z,28.50
2023-07-14T08:52:34.266Z,28.90
2023-07-14T08:55:13.295Z,29.10
2023-07-14T08:57:49.761Z,29.30
2023-07-14T09:00:27.029Z,29.50
2023-07-14T09:03:09.729Z,29.70
2023-07-14T09:05:45.030Z,29.90
2023-07-14T09:08:15.246Z,30.00
2023-07-14T09:11:02.091Z,29.60
2023-07-14T09:13:48.352Z,29.50
2023-07-14T09:16:21.726Z,29.60
2023-07-14T09:18:59.552Z,29.70
2023-07-14T09:21:38.167Z,29.30
2023-07-14T09:24:18.371Z,29.20
2023-07-14T09:26:53.535Z,29.10
2023-07-14T09:29:31.669Z,29.20
2023-07-14T09:32:06.608Z,29.20
2023-07-14T09:34:41.652Z,29.10
2023-07-14T09:37:23.940Z,29.30
2023-07-14T09:40:07.010Z,29.20
2023-07-14T09:42:41.808Z,29.50
2023-07-14T09:45:20.550Z,29.70
2023-07-14T09:47:54.615Z,29.80
2023-07-14T09:50:26.505Z,30.00
2023-07-14T09:52:59.173Z,30.20
2023-07-14T09:55:35.440Z,30.40
2023-07-14T09:58:11.473Z,30.40
2023-07-14T10:00:42.631Z,30.40
2023-07-14T10:03:22.976Z,30.70
2023-07-14T10:06:06.359Z,30.60
2023-07-14T10:08:37.749Z,30.60
2023-07-14T10:11:22.313Z,30.50
2023-07-14T10:14:01.065Z,30.20
2023-07-14T10:16:34.013Z,30.00
2023-07-14T10:19:14.471Z,29.60
2023-07-14T10:21:55.055Z,29.30
2023-07-14T10:24:25.436Z,29.40
2023-07-14T10:26:59.556Z,29.40
2023-07-14T10:29:48.289Z,29.60
2023-07-14T10:32:26.922Z,29.60
2023-07-14T10:35:03.929Z,29.60
2023-07-14T10:37:41.919Z,29.60
2023-07-14T10:40:18.048Z,29.20
2023-07-14T10:42:56.878Z,29.10
2023-07-14T10:45:26.497Z,29.20
2023-07-14T10:47:59.250Z,29.30
2023-07-14T10:50:35.891Z,29.40
2023-07-14T10:53:15.988Z,29.40
2023-07-14T10:55:46.914Z,29.60
2023-07-14T10:58:25.300Z,29.40
2023-07-14T11:01:01.090Z,29.50
2023-07-14T11:03:31.988Z,29.60
2023-07-14T11:06:05.941Z,29.80
2023-07-14T11:08:35.375Z,30.00
2023-07-14T11:11:14.084Z,30.10
2023-07-14T11:14:04.288Z,30.20
2023-07-14T11:16:39.145Z,30.30
2023-07-14T11:19:14.262Z,30.50
2023-07-14T11:21:53.467Z,30.60
2023-07-14T11:24:26.590Z,30.60
2023-07-14T11:27:15.455Z,30.80
2023-07-14T11:30:01.096Z,31.00
2023-07-14T11:32:40.749Z,31.20
2023-07-14T11:35:19.087Z,31.10
2023-07-14T11:38:02.271Z,31.10
2023-07-14T11:40:40.330Z,30.60
2023-07-14T11:43:18.441Z,30.50
2023-07-14T11:45:57.013Z,30.70
2023-07-14T11:48:36.422Z,30.90
2023-07-14T11:51:13.244Z,30.90
2023-07-14T11:54:04.966Z,31.00
2023-07-14T11:56:40.845Z,31.10
2023-07-14T11:59:19.574Z,31.30
2023-07-14T12:01:54.194Z,31.50
2023-07-14T12:04:28.849Z,31.60
2023-07-14T12:07:17.666Z,31.70
2023-07-14T12:10:14.592Z,31.70
2023-07-14T12:13:23.105Z,31.60
2023-07-14T12:16:16.489Z,31.50
2023-07-14T12:19:06.206Z,31.40
2023-07-14T12:21:47.414Z,31.30
2023-07-14T12:24:19.470Z,31.60
2023-07-14T12:26:54.442Z,31.90
2023-07-14T12:29:25.033Z,32.60
2023-07-14T12:31:58.382Z,33.20
2023-07-14T12:34:34.129Z,33.60
2023-07-14T12:37:03.198Z,33.80
2023-07-14T12:39:33.294Z,34.20
2023-07-14T12:42:03.998Z,34.60
2023-07-14T12:44:39.076Z,35.00
2023-07-14T12:47:11.568Z,35.30
2023-07-14T12:49:47.789Z,35.50
2023-07-14T12:52:22.284Z,35.20
2023-07-14T12:54:53.520Z,34.90
2023-07-14T12:57:23.453Z,34.60
2023-07-14T12:59:57.715Z,34.90
2023-07-14T13:02:27.090Z,34.40
2023-07-14T13:04:56.189Z,34.10
2023-07-14T13:07:32.761Z,34.10
2023-07-14T13:10:03.350Z,34.50
2023-07-14T13:12:33.979Z,34.70
2023-07-14T13:15:04.882Z,35.00
2023-07-14T13:17:35.249Z,35.00
2023-07-14T13:20:11.959Z,35.30
2023-07-14T13:22:41.018Z,35.30
2023-07-14T13:25:20.050Z,35.10
2023-07-14T13:27:49.897Z,35.10
2023-07-14T13:30:33.499Z,35.10
2023-07-14T13:33:03.474Z,35.10
2023-07-14T13:35:35.277Z,35.00
2023-07-14T13:38:09.726Z,34.90
2023-07-14T13:40:43.350Z,35.00
2023-07-14T13:43:19.814Z,34.90
2023-07-14T13:46:00.427Z,34.70
2023-07-14T13:48:33.380Z,34.40
2023-07-14T13:51:14.752Z,34.20
2023-07-14T13:53:43.414Z,34.00
2023-07-14T13:56:17.725Z,33.90
2023-07-14T13:58:47.033Z,33.80
2023-07-14T14:01:22.064Z,33.10
2023-07-14T14:03:54.936Z,32.70
2023-07-14T14:06:25.146Z,32.70
2023-07-14T14:08:54.134Z,32.70
2023-07-14T14:11:22.776Z,32.60
2023-07-14T14:13:51.230Z,32.30
2023-07-14T14:16:23.586Z,32.20
2023-07-14T14:18:54.887Z,32.10
2023-07-14T14:21:23.684Z,32.20
2023-07-14T14:23:52.444Z,32.10
2023-07-14T14:26:21.104Z,32.00
2023-07-14T14:28:50.953Z,32.20
2023-07-14T14:31:20.934Z,32.20
2023-07-14T14:33:49.727Z,32.30
2023-07-14T14:36:19.091Z,32.30
2023-07-14T14:38:48.058Z,32.30
2023-07-14T14:41:27.541Z,32.20
2023-07-14T14:43:56.637Z,31.60
2023-07-14T14:46:27.702Z,31.20
2023-07-14T14:48:56.768Z,31.10
2023-07-14T14:51:25.557Z,31.00
2023-07-14T14:53:54.483Z,31.00
2023-07-14T14:56:29.467Z,30.60
2023-07-14T14:59:10.164Z,30.30
2023-07-14T15:01:44.438Z,30.60
2023-07-14T15:04:18.153Z,30.80
2023-07-14T15:06:48.185Z,31.00
2023-07-14T15:09:18.040Z,30.70
2023-07-14T15:11:49.567Z,30.90
2023-07-14T15:14:34.574Z,31.00
2023-07-14T15:17:19.451Z,30.70
2023-07-14T15:19:49.058Z,30.50
2023-07-14T15:22:22.690Z,30.40
2023-07-14T15:24:52.924Z,30.10
2023-07-14T15:27:28.664Z,30.10
2023-07-14T15:30:05.987Z,30.10
2023-07-14T15:32:39.408Z,30.10
2023-07-14T15:35:17.114Z,30.40
2023-07-14T15:37:46.923Z,30.40
2023-07-14T15:40:19.709Z,30.60
2023-07-14T15:42:48.826Z,30.90
2023-07-14T15:45:19.624Z,31.10
2023-07-14T15:47:52.023Z,31.10
2023-07-14T15:50:27.532Z,31.00
2023-07-14T15:52:58.899Z,31.00
2023-07-14T15:55:36.656Z,30.90
2023-07-14T15:58:05.580Z,30.70
2023-07-14T16:00:33.843Z,30.60
2023-07-14T16:03:03.939Z,30.60
2023-07-14T16:05:35.927Z,30.60
2023-07-14T16:08:05.242Z,30.30
2023-07-14T16:10:38.939Z,30.30
2023-07-14T16:13:07.964Z,30.30
2023-07-14T16:15:36.815Z,30.50
2023-07-14T16:18:07.316Z,30.60
2023-07-14T16:20:36.830Z,30.80
2023-07-14T16:23:07.383Z,30.80
2023-07-14T16:25:40.278Z,30.70
2023-07-14T16:28:09.002Z,30.70
2023-07-14T16:30:37.288Z,30.70
2023-07-14T16:33:08.007Z,30.50
2023-07-14T16:35:38.669Z,30.40
2023-07-14T16:38:18.620Z,30.10
2023-07-14T16:40:48.813Z,29.90
2023-07-14T16:43:20.478Z,29.90
2023-07-14T16:45:55.750Z,29.80
2023-07-14T16:48:26.433Z,29.70
2023-07-14T16:50:55.025Z,29.70
2023-07-14T16:53:25.048Z,29.70
2023-07-14T16:55:54.030Z,29.70
2023-07-14T16:58:27.029Z,29.70
2023-07-14T17:00:58.237Z,29.70
2023-07-14T17:03:32.587Z,29.60
2023-07-14T17:06:08.087Z,29.70
2023-07-14T17:08:42.541Z,29.60
2023-07-14T17:11:12.584Z,29.50
2023-07-14T17:13:44.771Z,29.50
2023-07-14T17:16:14.561Z,29.40
2023-07-14T17:18:46.536Z,29.40
2023-07-14T17:21:20.033Z,29.40
2023-07-14T17:23:48.833Z,29.30
2023-07-14T17:26:19.780Z,29.30
2023-07-14T17:28:50.963Z,29.30
2023-07-14T17:31:20.803Z,29.20
2023-07-14T17:33:51.207Z,29.10
2023-07-14T17:36:21.989Z,29.10
2023-07-14T17:38:52.111Z,29.10
2023-07-14T17:41:25.583Z,29.00
2023-07-14T17:43:59.812Z,29.00
2023-07-14T17:46:28.970Z,29.00
2023-07-14T17:49:02.342Z,28.90
2023-07-14T17:51:33.367Z,28.90
2023-07-14T17:54:21.557Z,28.90
2023-07-14T17:56:53.796Z,28.80
2023-07-14T17:59:26.954Z,28.80
2023-07-14T18:02:08.102Z,28.80
2023-07-14T18:04:38.961Z,28.70
2023-07-14T18:07:13.384Z,28.70
2023-07-14T18:09:42.591Z,28.70
2023-07-14T18:12:15.684Z,28.60
2023-07-14T18:14:44.300Z,28.50
2023-07-14T18:17:16.288Z,28.50
2023-07-14T18:19:46.270Z,28.40
2023-07-14T18:22:31.520Z,28.40
2023-07-14T18:25:04.609Z,28.30
2023-07-14T18:27:34.220Z,28.30
2023-07-14T18:30:06.218Z,28.20
2023-07-14T18:32:35.107Z,28.10
2023-07-14T18:35:06.969Z,28.00
2023-07-14T18:37:35.705Z,28.00
2023-07-14T18:40:07.021Z,27.90
2023-07-14T18:42:38.766Z,27.90
2023-07-14T18:45:17.965Z,27.80
2023-07-14T18:47:47.135Z,27.60
2023-07-14T18:50:17.587Z,27.60
2023-07-14T18:52:46.576Z,27.50
2023-07-14T18:55:18.599Z,27.30
2023-07-14T18:57:49.184Z,27.30
2023-07-14T19:00:22.494Z,27.20
2023-07-14T19:02:53.715Z,27.10
2023-07-14T19:05:24.358Z,27.00
2023-07-14T19:07:53.978Z,26.90
2023-07-14T19:10:22.917Z,26.80
2023-07-14T19:12:51.944Z,26.70
2023-07-14T19:15:27.676Z,26.40
2023-07-14T19:17:56.765Z,26.40
2023-07-14T19:20:26.865Z,26.30
2023-07-14T19:22:55.445Z,26.20
2023-07-14T19:25:27.697Z,26.00
2023-07-14T19:27:57.052Z,25.90
2023-07-14T19:30:36.149Z,25.80
2023-07-14T19:33:05.550Z,25.70
2023-07-14T19:35:38.562Z,25.60
2023-07-14T19:38:12.642Z,25.40
2023-07-14T19:40:42.057Z,25.30
2023-07-14T19:43:19.036Z,25.20
2023-07-14T19:45:48.074Z,25.10
2023-07-14T19:48:19.424Z,24.90
2023-07-14T19:50:53.269Z,24.80
2023-07-14T19:53:30.607Z,24.60
2023-07-14T19:56:01.384Z,24.50
2023-07-14T19:58:31.362Z,24.40
2023-07-14T20:01:01.162Z,24.30
2023-07-14T20:03:33.472Z,24.20
2023-07-14T20:06:03.626Z,24.10
2023-07-14T20:08:43.744Z,24.00
2023-07-14T20:11:17.162Z,23.90
2023-07-14T20:13:46.023Z,23.80
2023-07-14T20:16:17.762Z,23.70
2023-07-14T20:18:49.430Z,23.60
2023-07-14T20:21:28.787Z,23.50
2023-07-14T20:24:01.176Z,23.50
2023-07-14T20:26:30.230Z,23.40
2023-07-14T20:28:59.229Z,23.30
2023-07-14T20:31:29.993Z,23.30
2023-07-14T20:33:59.204Z,23.20
2023-07-14T20:36:30.283Z,23.10
2023-07-14T20:39:00.504Z,23.10
2023-07-14T20:41:32.893Z,23.10
2023-07-14T20:44:02.705Z,23.10
2023-07-14T20:46:35.488Z,23.10
2023-07-14T20:49:17.404Z,23.20
2023-07-14T20:51:48.940Z,23.30
2023-07-14T20:54:18.109Z,23.40
2023-07-14T20:56:48.837Z,23.60
2023-07-14T20:59:18.336Z,23.70
2023-07-14T21:01:47.215Z,23.80
2023-07-14T21:04:23.721Z,23.90
2023-07-14T21:06:55.215Z,24.00
2023-07-14T21:09:25.958Z,24.00
2023-07-14T21:11:54.869Z,24.00
2023-07-14T21:14:23.372Z,24.10
2023-07-14T21:16:55.691Z,24.10
2023-07-14T21:19:24.548Z,24.00
2023-07-14T21:21:54.189Z,24.00
2023-07-14T21:24:23.100Z,23.90
2023-07-14T21:26:53.342Z,23.80
2023-07-14T21:29:22.316Z,23.70
2023-07-14T21:31:51.373Z,23.60
2023-07-14T21:34:23.235Z,23.50
2023-07-14T21:36:53.793Z,23.40
2023-07-14T21:39:25.868Z,23.30
2023-07-14T21:41:56.134Z,23.10
2023-07-14T21:44:25.352Z,23.10
2023-07-14T21:46:54.389Z,23.00
2023-07-14T21:49:23.134Z,22.90
2023-07-14T21:51:58.034Z,22.90
2023-07-14T21:54:28.697Z,22.80
2023-07-14T21:56:57.871Z,22.70
2023-07-14T21:59:26.650Z,22.70
2023-07-14T22:01:55.608Z,22.60
2023-07-14T22:04:30.029Z,22.50
2023-07-14T22:07:06.456Z,22.50
2023-07-14T22:09:39.435Z,22.40
2023-07-14T22:12:19.863Z,22.30
2023-07-14T22:14:50.431Z,22.20
2023-07-14T22:17:19.235Z,22.10
2023-07-14T22:19:47.559Z,22.00
2023-07-14T22:22:18.606Z,22.00
2023-07-14T22:24:48.658Z,21.90
2023-07-14T22:27:17.515Z,21.90
2023-07-14T22:29:46.398Z,21.80
2023-07-14T22:32:17.480Z,21.80
2023-07-14T22:34:47.063Z,21.80
2023-07-14T22:37:17.042Z,21.80
2023-07-14T22:39:47.503Z,21.80
2023-07-14T22:42:24.477Z,21.80
2023-07-14T22:44:53.953Z,21.70
2023-07-14T22:47:24.317Z,21.70
2023-07-14T22:49:53.241Z,21.60
2023-07-14T22:52:23.276Z,21.60
2023-07-14T22:54:51.883Z,21.50
2023-07-14T22:57:21.231Z,21.40
2023-07-14T22:59:50.144Z,21.30
2023-07-14T23:02:19.150Z,21.30
2023-07-14T23:04:48.140Z,21.20
2023-07-14T23:07:17.859Z,21.10
2023-07-14T23:09:48.084Z,21.00
2023-07-14T23:12:18.163Z,21.00
2023-07-14T23:14:48.392Z,20.90
2023-07-14T23:17:17.494Z,20.90
2023-07-14T23:19:46.216Z,20.80
2023-07-14T23:22:14.637Z,20.70
2023-07-14T23:24:43.714Z,20.70
2023-07-14T23:27:14.597Z,20.60
2023-07-14T23:29:43.791Z,20.60
2023-07-14T23:32:13.172Z,20.60
2023-07-14T23:34:42.179Z,20.50
2023-07-14T23:37:14.274Z,20.50
2023-07-14T23:39:42.900Z,20.40
2023-07-14T23:42:13.615Z,20.40
2023-07-14T23:44:42.328Z,20.30
2023-07-14T23:47:14.938Z,20.20
2023-07-14T23:49:44.570Z,20.20
2023-07-14T23:52:15.308Z,20.10
2023-07-14T23:54:45.120Z,20.10
2023-07-14T23:57:15.390Z,20.00
2023-07-14T23:59:44.102Z,20.00
